createdAt,value
2022-11-12T00:00:56.913Z,19.38
2022-11-12T00:03:23.260Z,20.21
2022-11-12T00:05:49.684Z,21.52
2022-11-12T00:08:16.028Z,22.98
2022-11-12T00:10:42.370Z,25.06
2022-11-12T00:13:08.707Z,26.65
2022-11-12T00:15:35.066Z,27.09
2022-11-12T00:18:01.408Z,27.73
2022-11-12T00:20:27.780Z,28.02
2022-11-12T00:22:54.122Z,28.14
2022-11-12T00:25:20.455Z,28.31
2022-11-12T00:27:46.794Z,28.60
2022-11-12T00:30:13.130Z,27.72
2022-11-12T00:32:39.466Z,28.98
2022-11-12T00:35:06.858Z,29.52
2022-11-12T00:37:35.067Z,29.80
2022-11-12T00:40:01.408Z,30.29
2022-11-12T00:42:27.742Z,29.75
2022-11-12T00:44:54.074Z,30.91
2022-11-12T00:47:20.414Z,31.27
2022-11-12T00:49:46.753Z,32.63
2022-11-12T00:52:13.113Z,33.19
2022-11-12T00:54:39.451Z,32.08
2022-11-12T00:57:05.795Z,30.75
2022-11-12T00:59:32.132Z,30.52
2022-11-12T01:01:58.478Z,30.11
2022-11-12T01:04:24.816Z,29.70
2022-11-12T01:06:51.172Z,28.50
2022-11-12T01:09:17.537Z,29.14
2022-11-12T01:11:43.877Z,29.61
2022-11-12T01:14:10.225Z,29.78
2022-11-12T01:16:36.591Z,27.87
2022-11-12T01:19:03.331Z,27.51
2022-11-12T01:21:29.675Z,27.79
2022-11-12T01:23:56.021Z,29.75
2022-11-12T01:26:22.364Z,29.02
2022-11-12T01:28:48.744Z,28.95
2022-11-12T01:31:15.100Z,28.62
2022-11-12T01:33:41.450Z,28.86
2022-11-12T01:36:07.797Z,29.22
2022-11-12T01:38:34.132Z,29.88
2022-11-12T01:41:00.461Z,29.97
2022-11-12T01:43:26.814Z,29.81
2022-11-12T01:45:53.150Z,30.62
2022-11-12T01:48:19.490Z,29.96
2022-11-12T01:50:45.840Z,28.83
2022-11-12T01:53:12.200Z,29.14
2022-11-12T01:55:38.550Z,29.07
2022-11-12T01:58:04.895Z,29.60
2022-11-12T02:00:31.236Z,28.79
2022-11-12T02:02:57.578Z,28.98
2022-11-12T02:05:23.911Z,28.76
2022-11-12T02:07:50.271Z,28.38
2022-11-12T02:10:16.617Z,28.48
2022-11-12T02:12:42.982Z,28.93
2022-11-12T02:15:09.324Z,28.90
2022-11-12T02:17:35.678Z,27.73
2022-11-12T02:20:02.021Z,27.25
2022-11-12T02:22:28.372Z,27.73
2022-11-12T02:24:54.705Z,27.20
2022-11-12T02:27:21.052Z,26.79
2022-11-12T02:29:47.394Z,26.90
2022-11-12T02:32:13.743Z,26.98
2022-11-12T02:34:40.088Z,26.15
2022-11-12T02:37:06.433Z,26.54
2022-11-12T02:39:32.783Z,26.06
2022-11-12T02:41:59.173Z,26.38
2022-11-12T02:44:25.527Z,25.91
2022-11-12T02:46:51.927Z,24.89
2022-11-12T02:49:18.265Z,25.35
2022-11-12T02:51:44.612Z,25.18
2022-11-12T02:54:10.956Z,24.72
2022-11-12T02:56:37.287Z,24.73
2022-11-12T02:59:03.683Z,24.25
2022-11-12T03:01:30.079Z,24.49
2022-11-12T03:03:57.567Z,24.55
2022-11-12T03:06:23.895Z,24.73
2022-11-12T03:08:50.226Z,25.23
2022-11-12T03:11:16.559Z,25.03
2022-11-12T03:13:42.903Z,24.47
2022-11-12T03:16:09.262Z,24.67
2022-11-12T03:18:35.595Z,23.91
2022-11-12T03:21:01.944Z,23.92
2022-11-12T03:23:28.283Z,22.97
2022-11-12T03:25:54.636Z,23.78
2022-11-12T03:28:20.979Z,23.45
2022-11-12T03:30:47.315Z,22.90
2022-11-12T03:33:13.663Z,23.24
2022-11-12T03:35:40.004Z,23.43
2022-11-12T03:38:06.343Z,23.97
2022-11-12T03:40:32.675Z,23.17
2022-11-12T03:42:59.015Z,23.18
2022-11-12T03:45:25.355Z,23.12
2022-11-12T03:47:51.698Z,22.77
2022-11-12T03:50:18.040Z,22.91
2022-11-12T03:52:44.398Z,22.17
2022-11-12T03:55:10.736Z,22.60
2022-11-12T03:57:37.066Z,22.44
2022-11-12T04:00:03.409Z,22.48
2022-11-12T04:02:29.767Z,22.41
2022-11-12T04:04:56.109Z,21.66
2022-11-12T04:07:22.460Z,22.27
2022-11-12T04:09:48.811Z,21.25
2022-11-12T04:12:15.152Z,21.22
2022-11-12T04:14:41.491Z,20.85
2022-11-12T04:17:07.840Z,20.76
2022-11-12T04:19:34.188Z,20.56
2022-11-12T04:22:00.539Z,20.81
2022-11-12T04:24:26.879Z,20.23
2022-11-12T04:26:53.206Z,19.95
2022-11-12T04:29:19.546Z,20.10
2022-11-12T04:31:45.884Z,19.92
2022-11-12T04:34:12.234Z,20.06
2022-11-12T04:36:38.578Z,18.61
2022-11-12T04:39:04.915Z,18.63
2022-11-12T04:41:31.266Z,18.62
2022-11-12T04:43:57.617Z,19.52
2022-11-12T04:46:23.947Z,18.98
2022-11-12T04:48:50.292Z,18.52
2022-11-12T04:51:16.634Z,17.75
2022-11-12T04:53:42.969Z,17.69
2022-11-12T04:56:09.317Z,17.68
2022-11-12T04:58:35.660Z,16.45
2022-11-12T05:01:02.044Z,16.90
2022-11-12T05:03:28.408Z,17.90
2022-11-12T05:05:54.751Z,18.76
2022-11-12T05:08:21.090Z,18.50
2022-11-12T05:10:47.431Z,18.81
2022-11-12T05:13:13.770Z,18.43
2022-11-12T05:15:40.115Z,18.54
2022-11-12T05:18:06.459Z,19.17
2022-11-12T05:20:32.800Z,19.45
2022-11-12T05:23:06.636Z,19.32
2022-11-12T05:25:33.379Z,19.09
2022-11-12T05:27:59.720Z,19.47
2022-11-12T05:30:26.053Z,19.27
2022-11-12T05:32:52.395Z,18.58
2022-11-12T05:35:18.730Z,18.83
2022-11-12T05:37:45.076Z,18.18
2022-11-12T05:40:11.442Z,18.10
2022-11-12T05:42:37.794Z,18.34
2022-11-12T05:45:04.133Z,18.05
2022-11-12T05:47:30.512Z,17.47
2022-11-12T05:49:56.852Z,17.69
2022-11-12T05:52:23.198Z,17.73
2022-11-12T05:54:49.539Z,18.55
2022-11-12T05:57:15.878Z,17.69
2022-11-12T05:59:42.225Z,19.01
2022-11-12T06:02:08.643Z,18.65
2022-11-12T06:04:35.033Z,19.34
2022-11-12T06:07:01.419Z,19.24
2022-11-12T06:09:27.823Z,19.74
2022-11-12T06:11:54.170Z,21.18
2022-11-12T06:14:20.506Z,20.84
2022-11-12T06:16:46.861Z,21.77
2022-11-12T06:19:14.015Z,22.88
2022-11-12T06:21:40.353Z,24.33
2022-11-12T06:24:06.967Z,24.37
2022-11-12T06:26:33.303Z,24.42
2022-11-12T06:28:59.642Z,24.56
2022-11-12T06:31:26.011Z,24.31
2022-11-12T06:33:52.353Z,23.08
2022-11-12T06:36:18.692Z,23.66
2022-11-12T06:38:45.046Z,24.13
2022-11-12T06:41:11.435Z,24.13
2022-11-12T06:43:37.780Z,24.64
2022-11-12T06:46:04.140Z,24.68
2022-11-12T06:48:30.475Z,24.46
2022-11-12T06:50:56.812Z,24.46
2022-11-12T06:53:23.159Z,24.20
2022-11-12T06:55:49.492Z,25.02
2022-11-12T06:58:15.868Z,24.59
2022-11-12T07:00:42.237Z,24.02
2022-11-12T07:03:08.572Z,23.77
2022-11-12T07:05:34.926Z,23.52
2022-11-12T07:08:01.452Z,23.53
2022-11-12T07:10:27.849Z,22.39
2022-11-12T07:12:54.205Z,20.53
2022-11-12T07:15:20.543Z,18.87
2022-11-12T07:17:46.887Z,18.07
2022-11-12T07:20:13.250Z,17.64
2022-11-12T07:22:39.596Z,17.23
2022-11-12T07:25:05.945Z,16.75
2022-11-12T07:27:32.281Z,16.42
2022-11-12T07:29:58.634Z,16.85
2022-11-12T07:32:24.988Z,17.09
2022-11-12T07:34:51.351Z,16.52
2022-11-12T07:37:17.708Z,16.68
2022-11-12T07:39:44.052Z,16.06
2022-11-12T07:42:10.404Z,15.89
2022-11-12T07:44:36.767Z,15.70
2022-11-12T07:47:03.112Z,15.39
2022-11-12T07:49:29.451Z,15.51
2022-11-12T07:51:55.789Z,15.89
2022-11-12T07:54:22.132Z,15.58
2022-11-12T07:56:48.458Z,15.41
2022-11-12T07:59:14.810Z,14.72
2022-11-12T08:01:41.187Z,14.70
2022-11-12T08:04:07.585Z,15.02
2022-11-12T08:06:33.932Z,14.75
2022-11-12T08:09:00.279Z,14.24
2022-11-12T08:11:26.636Z,14.52
2022-11-12T08:13:52.982Z,14.12
2022-11-12T08:16:19.349Z,13.82
2022-11-12T08:18:45.688Z,13.96
2022-11-12T08:21:12.031Z,14.03
2022-11-12T08:23:38.372Z,15.08
2022-11-12T08:26:04.724Z,14.33
2022-11-12T08:28:31.065Z,14.43
2022-11-12T08:30:57.402Z,14.72
2022-11-12T08:33:23.735Z,15.05
2022-11-12T08:35:50.072Z,15.09
2022-11-12T08:38:16.417Z,14.53
2022-11-12T08:40:42.780Z,14.91
2022-11-12T08:43:09.116Z,14.40
2022-11-12T08:45:35.454Z,14.97
2022-11-12T08:48:01.811Z,14.28
2022-11-12T08:50:28.134Z,14.41
2022-11-12T08:52:54.468Z,14.71
2022-11-12T08:55:20.801Z,14.35
2022-11-12T08:57:47.143Z,13.92
2022-11-12T09:00:13.484Z,14.35
2022-11-12T09:02:39.819Z,14.43
2022-11-12T09:05:06.155Z,14.39
2022-11-12T09:07:49.381Z,16.33
2022-11-12T09:10:16.568Z,19.30
2022-11-12T09:12:42.901Z,16.57
2022-11-12T09:15:36.267Z,15.77
2022-11-12T09:17:55.561Z,15.93
2022-11-12T09:20:21.904Z,16.43
2022-11-12T09:22:48.245Z,16.89
2022-11-12T09:25:14.580Z,17.15
2022-11-12T09:27:44.423Z,17.70
2022-11-12T09:30:14.538Z,17.35
2022-11-12T09:32:40.885Z,17.59
2022-11-12T09:35:07.231Z,17.19
2022-11-12T09:37:33.559Z,18.04
2022-11-12T09:39:59.890Z,18.16
2022-11-12T09:42:26.231Z,17.74
2022-11-12T09:44:52.564Z,17.80
2022-11-12T09:47:18.908Z,17.97
2022-11-12T09:49:45.252Z,17.37
2022-11-12T09:52:11.614Z,17.51
2022-11-12T09:54:37.960Z,18.33
2022-11-12T09:57:04.297Z,18.55
2022-11-12T09:59:30.638Z,18.56
2022-11-12T10:01:57.008Z,18.54
2022-11-12T10:04:23.371Z,19.52
2022-11-12T10:06:49.740Z,20.12
2022-11-12T10:09:16.093Z,20.07
2022-11-12T10:11:42.437Z,20.74
2022-11-12T10:14:08.781Z,20.88
2022-11-12T10:16:35.132Z,20.74
2022-11-12T10:19:01.471Z,20.85
2022-11-12T10:21:27.819Z,20.95
2022-11-12T10:23:54.159Z,20.20
2022-11-12T10:26:20.503Z,20.26
2022-11-12T10:28:46.857Z,20.44
2022-11-12T10:31:13.219Z,19.46
2022-11-12T10:33:39.579Z,19.67
2022-11-12T10:36:05.924Z,20.23
2022-11-12T10:38:32.256Z,20.54
2022-11-12T10:40:58.590Z,20.16
2022-11-12T10:43:24.929Z,21.38
2022-11-12T10:45:51.271Z,20.99
2022-11-12T10:48:17.615Z,20.38
2022-11-12T10:50:43.963Z,20.34
2022-11-12T10:53:10.299Z,20.38
2022-11-12T10:55:36.647Z,20.74
2022-11-12T10:58:02.992Z,20.60
2022-11-12T11:00:29.332Z,21.56
2022-11-12T11:02:55.668Z,21.26
2022-11-12T11:05:22.013Z,21.49
2022-11-12T11:07:48.374Z,20.38
2022-11-12T11:10:14.730Z,20.49
2022-11-12T11:12:41.065Z,20.07
2022-11-12T11:15:07.429Z,20.64
2022-11-12T11:17:33.777Z,21.18
2022-11-12T11:20:00.132Z,20.44
2022-11-12T11:22:26.486Z,19.93
2022-11-12T11:24:52.820Z,21.00
2022-11-12T11:27:19.159Z,22.07
2022-11-12T11:29:45.501Z,19.34
2022-11-12T11:32:11.842Z,20.64
2022-11-12T11:34:38.179Z,19.99
2022-11-12T11:37:04.515Z,20.21
2022-11-12T11:39:30.854Z,20.78
2022-11-12T11:41:57.211Z,20.19
2022-11-12T11:44:23.585Z,20.81
2022-11-12T11:46:49.940Z,20.87
2022-11-12T11:49:16.292Z,20.39
2022-11-12T11:51:42.643Z,20.03
2022-11-12T11:54:08.993Z,19.84
2022-11-12T11:56:35.336Z,20.07
2022-11-12T11:59:01.689Z,19.79
2022-11-12T12:01:28.036Z,19.67
2022-11-12T12:03:54.450Z,20.48
2022-11-12T12:06:20.841Z,20.86
2022-11-12T12:08:47.201Z,20.35
2022-11-12T12:11:13.542Z,19.89
2022-11-12T12:13:39.886Z,19.58
2022-11-12T12:16:06.230Z,20.71
2022-11-12T12:18:32.577Z,19.94
2022-11-12T12:20:58.918Z,20.15
2022-11-12T12:23:25.269Z,19.28
2022-11-12T12:25:53.971Z,19.39
2022-11-12T12:28:23.916Z,20.11
2022-11-12T12:30:50.303Z,20.05
2022-11-12T12:33:16.647Z,19.50
2022-11-12T12:35:42.983Z,18.78
2022-11-12T12:38:09.328Z,19.21
2022-11-12T12:40:35.680Z,18.46
2022-11-12T12:43:02.022Z,17.84
2022-11-12T12:45:34.673Z,17.76
2022-11-12T12:48:02.198Z,18.08
2022-11-12T12:50:28.539Z,17.65
2022-11-12T12:52:54.899Z,17.56
2022-11-12T12:55:21.231Z,17.86
2022-11-12T12:57:47.580Z,17.14
2022-11-12T13:00:15.627Z,18.25
2022-11-12T13:02:42.121Z,16.66
2022-11-12T13:05:08.463Z,17.12
2022-11-12T13:07:34.816Z,17.08
2022-11-12T13:10:01.152Z,17.83
2022-11-12T13:12:27.490Z,18.35
2022-11-12T13:14:53.844Z,17.21
2022-11-12T13:17:20.180Z,17.69
2022-11-12T13:19:46.523Z,16.96
2022-11-12T13:22:12.875Z,16.93
2022-11-12T13:24:39.212Z,16.92
2022-11-12T13:27:05.550Z,16.66
2022-11-12T13:29:31.886Z,16.75
2022-11-12T13:31:58.223Z,16.73
2022-11-12T13:34:24.559Z,17.37
2022-11-12T13:36:50.903Z,17.49
2022-11-12T13:39:17.245Z,17.16
2022-11-12T13:41:43.592Z,16.76
2022-11-12T13:44:09.939Z,16.97
2022-11-12T13:46:36.265Z,17.47
2022-11-12T13:49:02.632Z,16.92
2022-11-12T13:51:28.974Z,17.17
2022-11-12T13:53:55.316Z,17.07
2022-11-12T13:56:21.647Z,17.07
2022-11-12T13:58:48.003Z,16.01
2022-11-12T14:01:14.441Z,16.31
2022-11-12T14:03:40.887Z,16.12
2022-11-12T14:06:07.224Z,16.83
2022-11-12T14:08:33.579Z,16.46
2022-11-12T14:10:59.932Z,16.63
2022-11-12T14:13:26.281Z,16.50
2022-11-12T14:15:52.628Z,16.86
2022-11-12T14:18:18.975Z,17.49
2022-11-12T14:20:45.320Z,17.22
2022-11-12T14:23:11.664Z,17.11
2022-11-12T14:25:38.020Z,15.85
2022-11-12T14:28:04.361Z,15.96
2022-11-12T14:30:30.692Z,16.49
2022-11-12T14:32:57.030Z,15.24
2022-11-12T14:35:23.365Z,15.49
2022-11-12T14:37:49.707Z,15.53
2022-11-12T14:40:16.050Z,17.19
2022-11-12T14:42:42.404Z,17.02
2022-11-12T14:45:08.751Z,17.30
2022-11-12T14:47:35.098Z,16.51
2022-11-12T14:50:01.466Z,16.23
2022-11-12T14:52:27.829Z,16.14
2022-11-12T14:54:54.169Z,16.11
2022-11-12T14:57:20.523Z,18.30
2022-11-12T14:59:46.877Z,17.87
2022-11-12T15:04:59.563Z,17.19
2022-11-12T15:07:25.910Z,17.52
2022-11-12T15:09:52.251Z,18.70
2022-11-12T15:12:18.601Z,18.12
2022-11-12T15:14:44.967Z,17.72
2022-11-12T15:17:11.369Z,18.14
2022-11-12T15:19:37.702Z,18.00
2022-11-12T15:22:04.090Z,19.18
2022-11-12T15:24:30.447Z,19.22
2022-11-12T15:26:56.804Z,19.76
2022-11-12T15:29:23.149Z,18.48
2022-11-12T15:31:49.487Z,20.50
2022-11-12T15:34:15.825Z,20.80
2022-11-12T15:36:42.176Z,20.40
2022-11-12T15:39:08.520Z,21.44
2022-11-12T15:41:34.853Z,20.88
2022-11-12T15:44:01.208Z,20.13
2022-11-12T15:46:27.550Z,19.37
2022-11-12T15:48:56.151Z,18.34
2022-11-12T15:51:22.720Z,19.03
2022-11-12T15:53:49.074Z,19.01
2022-11-12T15:56:15.412Z,19.00
2022-11-12T15:58:41.768Z,19.74
2022-11-12T16:01:08.186Z,18.77
2022-11-12T16:03:34.615Z,19.21
2022-11-12T16:06:05.667Z,19.34
2022-11-12T16:08:35.172Z,19.32
2022-11-12T16:11:01.518Z,19.07
2022-11-12T16:13:28.179Z,18.93
2022-11-12T16:15:54.814Z,18.74
2022-11-12T16:18:21.167Z,19.67
2022-11-12T16:20:47.500Z,19.26
2022-11-12T16:23:13.840Z,18.86
2022-11-12T16:25:40.175Z,19.53
2022-11-12T16:28:06.536Z,19.27
2022-11-12T16:30:32.912Z,18.90
2022-11-12T16:32:59.256Z,18.24
2022-11-12T16:35:25.594Z,18.92
2022-11-12T16:37:51.936Z,18.74
2022-11-12T16:40:18.279Z,18.64
2022-11-12T16:42:44.624Z,17.81
2022-11-12T16:45:10.974Z,17.89
2022-11-12T16:47:37.338Z,18.57
2022-11-12T16:50:03.746Z,18.08
2022-11-12T16:52:30.079Z,18.44
2022-11-12T16:55:01.514Z,17.93
2022-11-12T16:57:30.571Z,18.13
2022-11-12T16:59:56.983Z,18.34
2022-11-12T17:02:23.339Z,17.65
2022-11-12T17:04:49.678Z,17.44
2022-11-12T17:07:16.050Z,18.00
2022-11-12T17:09:42.416Z,17.40
2022-11-12T17:12:08.778Z,17.26
2022-11-12T17:14:35.154Z,17.73
2022-11-12T17:17:01.497Z,17.92
2022-11-12T17:19:27.834Z,18.36
2022-11-12T17:21:54.183Z,17.86
2022-11-12T17:24:20.544Z,17.91
2022-11-12T17:26:46.900Z,17.92
2022-11-12T17:29:13.262Z,18.57
2022-11-12T17:31:39.629Z,18.26
2022-11-12T17:34:05.977Z,18.69
2022-11-12T17:36:32.324Z,18.76
2022-11-12T17:38:58.660Z,18.50
2022-11-12T17:41:25.024Z,18.36
2022-11-12T17:43:51.428Z,18.52
2022-11-12T17:46:17.765Z,18.80
2022-11-12T17:48:44.123Z,19.69
2022-11-12T17:51:10.483Z,19.34
2022-11-12T17:53:36.832Z,19.28
2022-11-12T17:56:03.163Z,18.94
2022-11-12T17:58:29.507Z,19.97
2022-11-12T18:00:55.907Z,19.52
2022-11-12T18:03:22.282Z,19.45
2022-11-12T18:05:48.632Z,19.29
2022-11-12T18:08:14.987Z,18.72
2022-11-12T18:10:41.332Z,19.48
2022-11-12T18:13:07.687Z,20.03
2022-11-12T18:15:34.031Z,22.59
2022-11-12T18:18:00.387Z,22.17
2022-11-12T18:20:26.723Z,20.75
2022-11-12T18:22:53.058Z,20.34
2022-11-12T18:25:19.406Z,20.09
2022-11-12T18:27:45.764Z,20.06
2022-11-12T18:30:17.976Z,19.83
2022-11-12T18:32:45.559Z,19.88
2022-11-12T18:35:11.907Z,19.78
2022-11-12T18:37:38.303Z,21.24
2022-11-12T18:40:04.661Z,21.05
2022-11-12T18:42:30.990Z,20.58
2022-11-12T18:44:57.350Z,20.35
2022-11-12T18:47:23.700Z,20.81
2022-11-12T18:49:50.036Z,20.39
2022-11-12T18:52:16.397Z,20.59
2022-11-12T18:54:42.757Z,21.27
2022-11-12T18:57:09.279Z,21.43
2022-11-12T18:59:35.626Z,21.29
2022-11-12T19:02:01.974Z,20.61
2022-11-12T19:04:28.339Z,20.35
2022-11-12T19:06:54.692Z,20.81
2022-11-12T19:09:21.042Z,20.43
2022-11-12T19:11:47.379Z,20.57
2022-11-12T19:14:13.732Z,20.95
2022-11-12T19:16:40.095Z,19.52
2022-11-12T19:19:06.434Z,20.40
2022-11-12T19:21:32.772Z,21.47
2022-11-12T19:23:59.117Z,21.14
2022-11-12T19:26:25.472Z,21.21
2022-11-12T19:28:51.829Z,21.71
2022-11-12T19:31:18.188Z,22.19
2022-11-12T19:33:44.553Z,20.98
2022-11-12T19:36:10.902Z,21.31
2022-11-12T19:38:37.253Z,22.52
2022-11-12T19:41:03.607Z,22.69
2022-11-12T19:43:29.957Z,21.25
2022-11-12T19:45:56.304Z,32.52
2022-11-12T19:48:22.644Z,29.25
2022-11-12T19:50:48.986Z,21.56
2022-11-12T19:53:15.331Z,21.76
2022-11-12T19:55:41.949Z,21.04
2022-11-12T19:58:08.329Z,20.80
2022-11-12T20:00:34.676Z,20.97
2022-11-12T20:03:01.026Z,20.62
2022-11-12T20:05:27.381Z,20.48
2022-11-12T20:07:53.727Z,20.17
2022-11-12T20:10:20.075Z,19.85
2022-11-12T20:12:46.413Z,20.59
2022-11-12T20:15:12.765Z,19.75
2022-11-12T20:17:39.109Z,19.80
2022-11-12T20:20:05.444Z,20.21
2022-11-12T20:22:32.264Z,18.63
2022-11-12T20:24:58.896Z,18.69
2022-11-12T20:27:25.276Z,19.73
2022-11-12T20:29:51.652Z,19.76
2022-11-12T20:32:17.990Z,20.25
2022-11-12T20:34:44.341Z,19.99
2022-11-12T20:37:10.689Z,20.36
2022-11-12T20:39:37.036Z,20.67
2022-11-12T20:42:03.392Z,20.75
2022-11-12T20:44:29.747Z,21.33
2022-11-12T20:46:56.096Z,20.50
2022-11-12T20:49:22.450Z,20.18
2022-11-12T20:51:48.787Z,21.42
2022-11-12T20:54:15.165Z,22.21
2022-11-12T20:56:41.498Z,22.28
2022-11-12T20:59:07.847Z,22.78
2022-11-12T21:01:34.253Z,22.41
2022-11-12T21:04:00.651Z,22.72
2022-11-12T21:06:27.011Z,22.22
2022-11-12T21:08:53.364Z,22.64
2022-11-12T21:11:19.716Z,22.48
2022-11-12T21:13:46.060Z,21.63
2022-11-12T21:16:12.404Z,21.48
2022-11-12T21:18:38.744Z,21.67
2022-11-12T21:21:05.109Z,20.86
2022-11-12T21:23:31.442Z,20.43
2022-11-12T21:25:57.799Z,19.27
2022-11-12T21:28:24.239Z,18.44
2022-11-12T21:30:50.662Z,18.02
2022-11-12T21:33:17.000Z,17.48
2022-11-12T21:35:43.328Z,17.53
2022-11-12T21:38:09.665Z,17.54
2022-11-12T21:40:36.019Z,16.55
2022-11-12T21:43:02.372Z,16.06
2022-11-12T21:45:28.715Z,16.17
2022-11-12T21:47:55.053Z,14.95
2022-11-12T21:50:21.392Z,15.42
2022-11-12T21:52:47.730Z,15.53
2022-11-12T21:55:14.086Z,15.77
2022-11-12T21:57:40.423Z,14.71
2022-11-12T22:00:34.629Z,14.59
2022-11-12T22:02:53.120Z,16.56
2022-11-12T22:05:19.556Z,15.82
2022-11-12T22:07:45.895Z,15.36
2022-11-12T22:10:12.236Z,15.22
2022-11-12T22:12:38.607Z,15.41
2022-11-12T22:15:04.947Z,15.43
2022-11-12T22:17:31.293Z,15.43
2022-11-12T22:19:57.617Z,15.27
2022-11-12T22:22:23.989Z,15.93
2022-11-12T22:24:50.344Z,15.79
2022-11-12T22:27:16.693Z,16.33
2022-11-12T22:29:43.030Z,16.86
2022-11-12T22:32:09.374Z,16.41
2022-11-12T22:34:35.723Z,17.32
2022-11-12T22:37:02.080Z,17.67
2022-11-12T22:39:28.418Z,17.26
2022-11-12T22:41:54.765Z,17.28
2022-11-12T22:44:21.100Z,17.42
2022-11-12T22:46:47.460Z,17.21
2022-11-12T22:49:13.805Z,17.75
2022-11-12T22:51:40.146Z,16.95
2022-11-12T22:54:06.499Z,17.28
2022-11-12T22:56:32.835Z,17.28
2022-11-12T22:58:59.192Z,17.25
2022-11-12T23:01:25.574Z,17.29
2022-11-12T23:03:51.956Z,16.87
2022-11-12T23:06:18.300Z,17.43
2022-11-12T23:08:44.630Z,17.80
2022-11-12T23:11:10.981Z,17.76
2022-11-12T23:13:37.338Z,17.79
2022-11-12T23:16:03.683Z,17.29
2022-11-12T23:18:30.228Z,17.49
2022-11-12T23:20:56.799Z,17.96
2022-11-12T23:23:23.136Z,18.97
2022-11-12T23:25:49.482Z,17.52
2022-11-12T23:28:15.849Z,17.70
2022-11-12T23:30:42.209Z,18.02
2022-11-12T23:33:08.546Z,18.27
2022-11-12T23:35:34.923Z,19.00
2022-11-12T23:38:01.282Z,19.26
2022-11-12T23:40:31.194Z,18.77
2022-11-12T23:42:57.741Z,19.30
2022-11-12T23:45:24.071Z,20.21
2022-11-12T23:47:50.426Z,20.36
2022-11-12T23:50:16.776Z,19.74
2022-11-12T23:52:43.128Z,20.11
2022-11-12T23:55:09.467Z,20.31
2022-11-12T23:57:35.801Z,18.99
